sensor_id;sensor_type;location;lat;lon;timestamp;pressure;altitude;pressure_sealevel;temperature;humidity
80482;BME280;69797;43.864;21.410;2023-07-09T00:01:16;100402.72;;;17.03;74.05
80482;BME280;69797;43.864;21.410;2023-07-09T00:03:47;100425.47;;;17.05;74.19
80482;BME280;69797;43.864;21.410;2023-07-09T00:06:20;100409.16;;;16.87;74.39
80482;BME280;69797;43.864;21.410;2023-07-09T00:08:48;100423.88;;;16.87;74.64
80482;BME280;69797;43.864;21.410;2023-07-09T00:11:16;100429.84;;;16.79;74.09
80482;BME280;69797;43.864;21.410;2023-07-09T00:13:43;100400.47;;;16.56;75.25
80482;BME280;69797;43.864;21.410;2023-07-09T00:16:23;100425.50;;;16.66;75.09
80482;BME280;69797;43.864;21.410;2023-07-09T00:18:54;100424.34;;;16.62;76.98
80482;BME280;69797;43.864;21.410;2023-07-09T00:21:21;100425.19;;;16.63;76.54
80482;BME280;69797;43.864;21.410;2023-07-09T00:23:52;100437.72;;;16.70;76.32
80482;BME280;69797;43.864;21.410;2023-07-09T00:26:20;100439.66;;;16.70;76.09
80482;BME280;69797;43.864;21.410;2023-07-09T00:28:50;100426.78;;;16.59;75.58
80482;BME280;69797;43.864;21.410;2023-07-09T00:31:17;100425.59;;;16.54;76.07
80482;BME280;69797;43.864;21.410;2023-07-09T00:33:45;100436.16;;;16.58;77.17
80482;BME280;69797;43.864;21.410;2023-07-09T00:36:28;100418.03;;;16.45;76.38
80482;BME280;69797;43.864;21.410;2023-07-09T00:38:55;100412.69;;;16.38;77.13
80482;BME280;69797;43.864;21.410;2023-07-09T00:41:26;100431.59;;;16.46;77.15
80482;BME280;69797;43.864;21.410;2023-07-09T00:43:56;100422.06;;;16.37;77.63
80482;BME280;69797;43.864;21.410;2023-07-09T00:48:57;100435.44;;;16.45;78.00
80482;BME280;69797;43.864;21.410;2023-07-09T00:51:25;100424.88;;;16.42;78.44
80482;BME280;69797;43.864;21.410;2023-07-09T00:53:58;100415.69;;;16.37;77.22
80482;BME280;69797;43.864;21.410;2023-07-09T00:56:33;100404.81;;;16.30;75.67
80482;BME280;69797;43.864;21.410;2023-07-09T00:59:09;100407.25;;;16.26;76.51
80482;BME280;69797;43.864;21.410;2023-07-09T01:01:39;100411.88;;;16.21;76.35
80482;BME280;69797;43.864;21.410;2023-07-09T01:04:12;100406.59;;;16.19;75.91
80482;BME280;69797;43.864;21.410;2023-07-09T01:06:42;100409.88;;;16.16;76.83
80482;BME280;69797;43.864;21.410;2023-07-09T01:09:10;100405.69;;;16.14;77.04
80482;BME280;69797;43.864;21.410;2023-07-09T01:11:37;100405.69;;;16.14;76.79
80482;BME280;69797;43.864;21.410;2023-07-09T01:14:07;100396.13;;;16.04;76.55
80482;BME280;69797;43.864;21.410;2023-07-09T01:16:48;100425.69;;;16.21;75.79
80482;BME280;69797;43.864;21.410;2023-07-09T01:19:15;100420.75;;;16.23;75.80
80482;BME280;69797;43.864;21.410;2023-07-09T01:21:45;100419.06;;;16.22;76.07
80482;BME280;69797;43.864;21.410;2023-07-09T01:24:14;100424.41;;;16.28;76.29
80482;BME280;69797;43.864;21.410;2023-07-09T01:26:41;100406.84;;;16.18;76.96
80482;BME280;69797;43.864;21.410;2023-07-09T01:29:10;100426.00;;;16.24;76.17
80482;BME280;69797;43.864;21.410;2023-07-09T01:31:36;100414.91;;;16.19;77.99
80482;BME280;69797;43.864;21.410;2023-07-09T01:34:03;100424.41;;;16.28;78.50
80482;BME280;69797;43.864;21.410;2023-07-09T01:36:31;100425.91;;;16.36;79.26
80482;BME280;69797;43.864;21.410;2023-07-09T01:38:58;100429.09;;;16.45;75.13
80482;BME280;69797;43.864;21.410;2023-07-09T01:41:25;100413.88;;;16.25;77.41
80482;BME280;69797;43.864;21.410;2023-07-09T01:43:51;100416.06;;;16.23;77.32
80482;BME280;69797;43.864;21.410;2023-07-09T01:46:19;100429.88;;;16.23;77.29
80482;BME280;69797;43.864;21.410;2023-07-09T01:48:47;100410.88;;;16.10;76.31
80482;BME280;69797;43.864;21.410;2023-07-09T01:51:17;100423.59;;;16.11;77.26
80482;BME280;69797;43.864;21.410;2023-07-09T01:53:44;100420.88;;;15.94;77.89
80482;BME280;69797;43.864;21.410;2023-07-09T01:56:11;100429.00;;;15.84;77.06
80482;BME280;69797;43.864;21.410;2023-07-09T01:58:40;100441.38;;;15.81;78.01
80482;BME280;69797;43.864;21.410;2023-07-09T02:01:10;100442.63;;;15.74;78.49
80482;BME280;69797;43.864;21.410;2023-07-09T02:03:40;100415.72;;;15.52;78.69
80482;BME280;69797;43.864;21.410;2023-07-09T02:06:07;100441.78;;;15.73;77.55
80482;BME280;69797;43.864;21.410;2023-07-09T02:08:37;100436.50;;;15.72;78.54
80482;BME280;69797;43.864;21.410;2023-07-09T02:11:04;100434.00;;;15.70;77.68
80482;BME280;69797;43.864;21.410;2023-07-09T02:13:31;100433.72;;;15.72;77.42
80482;BME280;69797;43.864;21.410;2023-07-09T02:15:58;100436.00;;;15.75;77.50
80482;BME280;69797;43.864;21.410;2023-07-09T02:18:28;100451.31;;;15.82;76.93
80482;BME280;69797;43.864;21.410;2023-07-09T02:20:55;100447.72;;;15.82;77.21
80482;BME280;69797;43.864;21.410;2023-07-09T02:23:29;100452.06;;;15.78;77.41
80482;BME280;69797;43.864;21.410;2023-07-09T02:25:55;100451.81;;;15.79;77.48
80482;BME280;69797;43.864;21.410;2023-07-09T02:28:22;100432.56;;;15.68;78.46
80482;BME280;69797;43.864;21.410;2023-07-09T02:30:49;100450.41;;;15.77;77.81
80482;BME280;69797;43.864;21.410;2023-07-09T02:33:16;100415.06;;;15.62;77.32
80482;BME280;69797;43.864;21.410;2023-07-09T02:35:43;100446.22;;;15.74;77.34
80482;BME280;69797;43.864;21.410;2023-07-09T02:38:10;100457.69;;;15.83;77.07
80482;BME280;69797;43.864;21.410;2023-07-09T02:40:36;100465.13;;;15.82;77.70
80482;BME280;69797;43.864;21.410;2023-07-09T02:43:03;100470.09;;;15.80;77.84
80482;BME280;69797;43.864;21.410;2023-07-09T02:45:32;100466.38;;;15.75;77.00
80482;BME280;69797;43.864;21.410;2023-07-09T02:47:59;100478.69;;;15.67;77.53
80482;BME280;69797;43.864;21.410;2023-07-09T02:50:26;100469.44;;;15.62;77.70
80482;BME280;69797;43.864;21.410;2023-07-09T02:52:52;100468.00;;;15.59;77.57
80482;BME280;69797;43.864;21.410;2023-07-09T02:55:19;100469.50;;;15.50;77.62
80482;BME280;69797;43.864;21.410;2023-07-09T02:57:46;100462.03;;;15.50;78.02
80482;BME280;69797;43.864;21.410;2023-07-09T03:00:13;100483.25;;;15.62;78.50
80482;BME280;69797;43.864;21.410;2023-07-09T03:02:40;100479.63;;;15.61;79.85
80482;BME280;69797;43.864;21.410;2023-07-09T03:05:07;100476.63;;;15.63;79.04
80482;BME280;69797;43.864;21.410;2023-07-09T03:07:36;100483.00;;;15.63;79.68
80482;BME280;69797;43.864;21.410;2023-07-09T03:10:03;100483.81;;;15.64;79.71
80482;BME280;69797;43.864;21.410;2023-07-09T03:12:30;100482.16;;;15.63;79.05
80482;BME280;69797;43.864;21.410;2023-07-09T03:14:57;100490.69;;;15.61;80.91
80482;BME280;69797;43.864;21.410;2023-07-09T03:17:24;100495.84;;;15.57;79.41
80482;BME280;69797;43.864;21.410;2023-07-09T03:19:50;100501.03;;;15.54;80.09
80482;BME280;69797;43.864;21.410;2023-07-09T03:22:17;100504.47;;;15.61;79.99
80482;BME280;69797;43.864;21.410;2023-07-09T03:24:44;100503.50;;;15.96;79.08
80482;BME280;69797;43.864;21.410;2023-07-09T03:27:11;100495.97;;;16.25;77.60
80482;BME280;69797;43.864;21.410;2023-07-09T03:29:38;100493.06;;;16.70;75.39
80482;BME280;69797;43.864;21.410;2023-07-09T03:32:05;100502.03;;;17.21;73.55
80482;BME280;69797;43.864;21.410;2023-07-09T03:34:32;100480.25;;;17.52;72.23
80482;BME280;69797;43.864;21.410;2023-07-09T03:36:59;100495.22;;;18.10;70.44
80482;BME280;69797;43.864;21.410;2023-07-09T03:39:26;100487.47;;;18.50;68.30
80482;BME280;69797;43.864;21.410;2023-07-09T03:41:52;100506.69;;;19.04;66.69
80482;BME280;69797;43.864;21.410;2023-07-09T03:44:19;100501.31;;;19.50;64.96
80482;BME280;69797;43.864;21.410;2023-07-09T03:46:48;100511.72;;;19.95;63.81
80482;BME280;69797;43.864;21.410;2023-07-09T03:49:15;100492.25;;;20.31;63.31
80482;BME280;69797;43.864;21.410;2023-07-09T03:51:42;100504.66;;;20.95;60.87
80482;BME280;69797;43.864;21.410;2023-07-09T03:54:09;100505.06;;;21.27;59.42
80482;BME280;69797;43.864;21.410;2023-07-09T03:56:36;100505.25;;;21.57;59.07
80482;BME280;69797;43.864;21.410;2023-07-09T03:59:04;100510.69;;;22.21;58.35
80482;BME280;69797;43.864;21.410;2023-07-09T04:01:31;100499.50;;;22.80;54.04
80482;BME280;69797;43.864;21.410;2023-07-09T04:03:58;100512.63;;;23.08;53.77
80482;BME280;69797;43.864;21.410;2023-07-09T04:06:24;100514.84;;;23.54;56.15
80482;BME280;69797;43.864;21.410;2023-07-09T04:08:51;100512.72;;;24.22;53.41
80482;BME280;69797;43.864;21.410;2023-07-09T04:11:18;100516.00;;;24.75;54.08
80482;BME280;69797;43.864;21.410;2023-07-09T04:13:45;100510.03;;;25.37;51.03
80482;BME280;69797;43.864;21.410;2023-07-09T04:16:12;100518.34;;;25.78;49.58
80482;BME280;69797;43.864;21.410;2023-07-09T04:18:39;100521.22;;;26.23;49.01
80482;BME280;69797;43.864;21.410;2023-07-09T04:21:05;100527.72;;;26.77;49.90
80482;BME280;69797;43.864;21.410;2023-07-09T04:23:35;100523.16;;;27.30;50.46
80482;BME280;69797;43.864;21.410;2023-07-09T04:26:02;100532.00;;;27.63;45.49
80482;BME280;69797;43.864;21.410;2023-07-09T04:28:30;100529.09;;;27.77;46.66
80482;BME280;69797;43.864;21.410;2023-07-09T04:30:58;100521.09;;;27.70;45.64
80482;BME280;69797;43.864;21.410;2023-07-09T04:33:24;100523.47;;;27.29;46.76
80482;BME280;69797;43.864;21.410;2023-07-09T04:35:51;100519.84;;;26.97;47.99
80482;BME280;69797;43.864;21.410;2023-07-09T04:38:18;100532.78;;;27.38;49.28
80482;BME280;69797;43.864;21.410;2023-07-09T04:40:46;100518.84;;;28.16;47.05
80482;BME280;69797;43.864;21.410;2023-07-09T04:43:13;100513.19;;;29.06;47.85
80482;BME280;69797;43.864;21.410;2023-07-09T04:45:40;100523.00;;;30.10;47.19
80482;BME280;69797;43.864;21.410;2023-07-09T04:48:09;100530.66;;;31.09;46.05
80482;BME280;69797;43.864;21.410;2023-07-09T04:50:36;100531.53;;;31.99;43.84
80482;BME280;69797;43.864;21.410;2023-07-09T04:53:03;100525.38;;;32.65;43.18
80482;BME280;69797;43.864;21.410;2023-07-09T04:55:30;100522.13;;;33.27;42.58
80482;BME280;69797;43.864;21.410;2023-07-09T04:57:57;100525.16;;;33.85;41.45
80482;BME280;69797;43.864;21.410;2023-07-09T05:00:23;100538.13;;;34.41;41.32
80482;BME280;69797;43.864;21.410;2023-07-09T05:02:50;100532.00;;;35.00;40.29
80482;BME280;69797;43.864;21.410;2023-07-09T05:05:17;100539.38;;;35.51;39.92
80482;BME280;69797;43.864;21.410;2023-07-09T05:07:44;100529.19;;;36.07;39.51
80482;BME280;69797;43.864;21.410;2023-07-09T05:10:11;100520.47;;;36.60;38.88
80482;BME280;69797;43.864;21.410;2023-07-09T05:12:47;100534.16;;;37.25;34.21
80482;BME280;69797;43.864;21.410;2023-07-09T05:15:15;100539.41;;;37.67;36.12
80482;BME280;69797;43.864;21.410;2023-07-09T05:17:42;100531.34;;;37.84;37.00
80482;BME280;69797;43.864;21.410;2023-07-09T05:20:09;100535.59;;;38.08;36.27
80482;BME280;69797;43.864;21.410;2023-07-09T05:22:36;100531.09;;;38.14;30.96
80482;BME280;69797;43.864;21.410;2023-07-09T05:25:03;100532.81;;;38.29;35.14
80482;BME280;69797;43.864;21.410;2023-07-09T05:27:30;100529.19;;;38.43;34.87
80482;BME280;69797;43.864;21.410;2023-07-09T05:29:56;100515.31;;;38.49;34.65
80482;BME280;69797;43.864;21.410;2023-07-09T05:32:24;100520.25;;;38.55;33.98
80482;BME280;69797;43.864;21.410;2023-07-09T05:34:51;100521.91;;;38.74;34.01
80482;BME280;69797;43.864;21.410;2023-07-09T05:37:21;100529.75;;;38.88;32.08
80482;BME280;69797;43.864;21.410;2023-07-09T05:39:48;100533.03;;;39.01;33.22
80482;BME280;69797;43.864;21.410;2023-07-09T05:42:17;100530.19;;;39.22;33.65
80482;BME280;69797;43.864;21.410;2023-07-09T05:44:44;100514.19;;;39.53;33.30
80482;BME280;69797;43.864;21.410;2023-07-09T05:47:11;100521.13;;;39.81;32.30
80482;BME280;69797;43.864;21.410;2023-07-09T05:49:38;100524.78;;;39.89;31.79
80482;BME280;69797;43.864;21.410;2023-07-09T05:52:06;100526.00;;;39.98;31.57
80482;BME280;69797;43.864;21.410;2023-07-09T05:54:34;100541.97;;;39.99;30.16
80482;BME280;69797;43.864;21.410;2023-07-09T05:57:00;100537.09;;;39.68;30.50
80482;BME280;69797;43.864;21.410;2023-07-09T05:59:27;100529.34;;;39.54;30.80
80482;BME280;69797;43.864;21.410;2023-07-09T06:01:54;100532.59;;;39.63;31.08
80482;BME280;69797;43.864;21.410;2023-07-09T06:04:21;100521.16;;;39.74;31.13
80482;BME280;69797;43.864;21.410;2023-07-09T06:06:50;100537.44;;;40.02;30.58
80482;BME280;69797;43.864;21.410;2023-07-09T06:09:16;100539.41;;;40.34;30.80
80482;BME280;69797;43.864;21.410;2023-07-09T06:11:43;100541.31;;;40.58;30.44
80482;BME280;69797;43.864;21.410;2023-07-09T06:14:11;100541.19;;;40.80;30.00
80482;BME280;69797;43.864;21.410;2023-07-09T06:16:41;100541.53;;;40.92;28.90
80482;BME280;69797;43.864;21.410;2023-07-09T06:19:10;100531.00;;;40.71;27.74
80482;BME280;69797;43.864;21.410;2023-07-09T06:21:39;100511.78;;;40.61;28.74
80482;BME280;69797;43.864;21.410;2023-07-09T06:24:07;100529.19;;;40.95;27.25
80482;BME280;69797;43.864;21.410;2023-07-09T06:26:34;100532.78;;;41.10;28.39
80482;BME280;69797;43.864;21.410;2023-07-09T06:29:01;100529.81;;;41.21;28.72
80482;BME280;69797;43.864;21.410;2023-07-09T06:31:29;100525.94;;;41.45;28.77
80482;BME280;69797;43.864;21.410;2023-07-09T06:33:56;100548.25;;;41.72;27.57
80482;BME280;69797;43.864;21.410;2023-07-09T06:36:23;100532.34;;;41.60;27.55
80482;BME280;69797;43.864;21.410;2023-07-09T06:38:50;100543.09;;;41.56;28.12
80482;BME280;69797;43.864;21.410;2023-07-09T06:41:17;100537.16;;;41.74;28.33
80482;BME280;69797;43.864;21.410;2023-07-09T06:43:43;100541.91;;;42.26;27.97
80482;BME280;69797;43.864;21.410;2023-07-09T06:46:12;100544.06;;;42.79;26.59
80482;BME280;69797;43.864;21.410;2023-07-09T06:48:39;100537.97;;;43.28;27.29
80482;BME280;69797;43.864;21.410;2023-07-09T06:51:06;100541.03;;;43.84;26.16
80482;BME280;69797;43.864;21.410;2023-07-09T06:53:33;100525.41;;;44.05;25.86
80482;BME280;69797;43.864;21.410;2023-07-09T06:56:00;100534.28;;;44.14;25.93
80482;BME280;69797;43.864;21.410;2023-07-09T06:58:31;100531.69;;;44.40;23.84
80482;BME280;69797;43.864;21.410;2023-07-09T07:01:06;100522.63;;;44.58;23.18
80482;BME280;69797;43.864;21.410;2023-07-09T07:03:33;100516.28;;;44.83;24.79
80482;BME280;69797;43.864;21.410;2023-07-09T07:06:01;100527.78;;;45.35;24.45
80482;BME280;69797;43.864;21.410;2023-07-09T07:08:29;100523.34;;;45.92;24.17
80482;BME280;69797;43.864;21.410;2023-07-09T07:10:58;100514.78;;;46.02;21.95
80482;BME280;69797;43.864;21.410;2023-07-09T07:13:30;100495.53;;;45.95;21.45
80482;BME280;69797;43.864;21.410;2023-07-09T07:15:57;100503.88;;;46.22;22.61
80482;BME280;69797;43.864;21.410;2023-07-09T07:18:24;100493.34;;;46.41;22.74
80482;BME280;69797;43.864;21.410;2023-07-09T07:20:51;100504.03;;;46.82;22.36
80482;BME280;69797;43.864;21.410;2023-07-09T07:23:18;100491.00;;;47.13;22.29
80482;BME280;69797;43.864;21.410;2023-07-09T07:25:46;100510.63;;;47.56;21.64
80482;BME280;69797;43.864;21.410;2023-07-09T07:28:14;100502.59;;;47.73;18.55
80482;BME280;69797;43.864;21.410;2023-07-09T07:30:41;100504.41;;;47.32;21.23
80482;BME280;69797;43.864;21.410;2023-07-09T07:33:08;100501.56;;;46.55;20.54
80482;BME280;69797;43.864;21.410;2023-07-09T07:35:35;100500.03;;;45.67;21.56
80482;BME280;69797;43.864;21.410;2023-07-09T07:38:13;100494.84;;;45.45;20.96
80482;BME280;69797;43.864;21.410;2023-07-09T07:40:44;100500.53;;;44.84;19.41
80482;BME280;69797;43.864;21.410;2023-07-09T07:43:11;100498.19;;;44.06;22.67
80482;BME280;69797;43.864;21.410;2023-07-09T07:45:43;100482.63;;;44.00;21.42
80482;BME280;69797;43.864;21.410;2023-07-09T07:48:11;100475.94;;;44.23;22.12
80482;BME280;69797;43.864;21.410;2023-07-09T07:50:38;100477.94;;;44.26;22.55
80482;BME280;69797;43.864;21.410;2023-07-09T07:53:07;100476.63;;;44.11;20.72
80482;BME280;69797;43.864;21.410;2023-07-09T07:55:35;100476.03;;;43.60;22.11
80482;BME280;69797;43.864;21.410;2023-07-09T07:58:03;100459.38;;;43.24;22.12
80482;BME280;69797;43.864;21.410;2023-07-09T08:00:31;100464.28;;;42.76;22.29
80482;BME280;69797;43.864;21.410;2023-07-09T08:02:58;100474.13;;;42.48;23.16
80482;BME280;69797;43.864;21.410;2023-07-09T08:05:25;100475.13;;;42.92;23.01
80482;BME280;69797;43.864;21.410;2023-07-09T08:07:54;100484.00;;;43.28;21.50
80482;BME280;69797;43.864;21.410;2023-07-09T08:10:21;100476.03;;;43.60;21.27
80482;BME280;69797;43.864;21.410;2023-07-09T08:12:48;100474.31;;;43.82;22.32
80482;BME280;69797;43.864;21.410;2023-07-09T08:15:15;100471.50;;;43.98;21.92
80482;BME280;69797;43.864;21.410;2023-07-09T08:17:43;100480.56;;;44.57;20.60
80482;BME280;69797;43.864;21.410;2023-07-09T08:20:10;100472.13;;;44.10;21.46
80482;BME280;69797;43.864;21.410;2023-07-09T08:22:37;100473.13;;;43.60;22.32
80482;BME280;69797;43.864;21.410;2023-07-09T08:25:06;100476.09;;;43.56;21.33
80482;BME280;69797;43.864;21.410;2023-07-09T08:27:33;100469.41;;;43.59;21.76
80482;BME280;69797;43.864;21.410;2023-07-09T08:30:00;100465.94;;;43.88;21.02
80482;BME280;69797;43.864;21.410;2023-07-09T08:32:27;100466.19;;;44.17;21.10
80482;BME280;69797;43.864;21.410;2023-07-09T08:34:57;100465.06;;;44.11;20.35
80482;BME280;69797;43.864;21.410;2023-07-09T08:37:44;100464.94;;;43.98;20.58
80482;BME280;69797;43.864;21.410;2023-07-09T08:40:15;100464.66;;;43.92;18.82
80482;BME280;69797;43.864;21.410;2023-07-09T08:42:47;100456.97;;;43.42;18.92
80482;BME280;69797;43.864;21.410;2023-07-09T08:45:47;100459.72;;;43.26;19.33
80482;BME280;69797;43.864;21.410;2023-07-09T08:50:58;100460.25;;;43.64;20.05
80482;BME280;69797;43.864;21.410;2023-07-09T08:53:37;100466.69;;;43.28;19.23
80482;BME280;69797;43.864;21.410;2023-07-09T08:56:09;100451.56;;;42.74;19.61
80482;BME280;69797;43.864;21.410;2023-07-09T08:58:38;100447.69;;;42.30;19.09
80482;BME280;69797;43.864;21.410;2023-07-09T09:01:32;100455.66;;;41.88;19.63
80482;BME280;69797;43.864;21.410;2023-07-09T09:04:23;100443.88;;;40.89;20.79
80482;BME280;69797;43.864;21.410;2023-07-09T09:06:59;100454.00;;;40.52;21.44
80482;BME280;69797;43.864;21.410;2023-07-09T09:09:33;100439.16;;;39.87;22.00
80482;BME280;69797;43.864;21.410;2023-07-09T09:12:13;100456.38;;;39.87;22.61
80482;BME280;69797;43.864;21.410;2023-07-09T09:14:44;100442.50;;;39.57;21.11
80482;BME280;69797;43.864;21.410;2023-07-09T09:17:15;100438.44;;;39.44;21.68
80482;BME280;69797;43.864;21.410;2023-07-09T09:19:53;100461.41;;;39.29;22.11
80482;BME280;69797;43.864;21.410;2023-07-09T09:22:23;100417.63;;;38.68;22.63
80482;BME280;69797;43.864;21.410;2023-07-09T09:24:58;100438.28;;;37.90;23.42
80482;BME280;69797;43.864;21.410;2023-07-09T09:27:33;100436.81;;;36.48;24.89
80482;BME280;69797;43.864;21.410;2023-07-09T09:30:00;100460.66;;;35.16;25.91
80482;BME280;69797;43.864;21.410;2023-07-09T09:32:43;100445.50;;;33.62;27.37
80482;BME280;69797;43.864;21.410;2023-07-09T09:35:15;100458.41;;;32.61;29.52
80482;BME280;69797;43.864;21.410;2023-07-09T09:37:49;100460.44;;;31.64;30.31
80482;BME280;69797;43.864;21.410;2023-07-09T09:40:18;100458.13;;;30.92;31.63
80482;BME280;69797;43.864;21.410;2023-07-09T09:42:54;100454.72;;;30.41;33.73
80482;BME280;69797;43.864;21.410;2023-07-09T09:45:26;100439.34;;;29.97;33.97
80482;BME280;69797;43.864;21.410;2023-07-09T09:47:59;100439.84;;;29.57;34.77
80482;BME280;69797;43.864;21.410;2023-07-09T09:50:32;100445.72;;;29.22;35.42
80482;BME280;69797;43.864;21.410;2023-07-09T09:53:01;100435.16;;;28.81;35.28
80482;BME280;69797;43.864;21.410;2023-07-09T09:55:30;100446.03;;;28.53;36.86
80482;BME280;69797;43.864;21.410;2023-07-09T09:57:59;100440.59;;;28.30;36.18
80482;BME280;69797;43.864;21.410;2023-07-09T10:00:27;100442.78;;;28.16;37.98
80482;BME280;69797;43.864;21.410;2023-07-09T10:03:00;100434.53;;;28.02;38.26
80482;BME280;69797;43.864;21.410;2023-07-09T10:06:01;100445.13;;;27.96;38.20
80482;BME280;69797;43.864;21.410;2023-07-09T10:14:01;100438.19;;;27.85;37.63
80482;BME280;69797;43.864;21.410;2023-07-09T10:16:37;100415.19;;;27.83;37.07
80482;BME280;69797;43.864;21.410;2023-07-09T10:19:24;100444.97;;;28.02;36.90
80482;BME280;69797;43.864;21.410;2023-07-09T10:22:05;100444.13;;;28.01;38.21
80482;BME280;69797;43.864;21.410;2023-07-09T10:27:13;100426.59;;;27.87;39.52
80482;BME280;69797;43.864;21.410;2023-07-09T10:32:59;100422.44;;;27.84;36.43
80482;BME280;69797;43.864;21.410;2023-07-09T10:35:54;100429.25;;;27.83;37.20
80482;BME280;69797;43.864;21.410;2023-07-09T10:40:51;100432.72;;;27.97;35.76
80482;BME280;69797;43.864;21.410;2023-07-09T10:46:27;100433.03;;;28.05;34.45
80482;BME280;69797;43.864;21.410;2023-07-09T10:48:55;100428.22;;;27.96;34.23
80482;BME280;69797;43.864;21.410;2023-07-09T10:54:02;100434.03;;;28.09;35.41
80482;BME280;69797;43.864;21.410;2023-07-09T10:56:35;100419.94;;;28.00;34.69
80482;BME280;69797;43.864;21.410;2023-07-09T11:01:40;100411.84;;;27.98;34.95
80482;BME280;69797;43.864;21.410;2023-07-09T11:04:44;100419.28;;;28.12;34.04
80482;BME280;69797;43.864;21.410;2023-07-09T11:07:17;100429.50;;;28.25;34.32
80482;BME280;69797;43.864;21.410;2023-07-09T11:09:46;100429.50;;;28.25;34.12
80482;BME280;69797;43.864;21.410;2023-07-09T11:12:20;100414.28;;;28.26;33.92
80482;BME280;69797;43.864;21.410;2023-07-09T11:15:15;100424.19;;;28.32;33.95
80482;BME280;69797;43.864;21.410;2023-07-09T11:17:43;100421.50;;;28.36;33.83
80482;BME280;69797;43.864;21.410;2023-07-09T11:20:20;100411.47;;;28.17;33.78
80482;BME280;69797;43.864;21.410;2023-07-09T11:23:02;100426.53;;;28.21;34.45
80482;BME280;69797;43.864;21.410;2023-07-09T11:25:42;100395.94;;;28.03;33.17
80482;BME280;69797;43.864;21.410;2023-07-09T11:28:10;100401.88;;;28.10;32.65
80482;BME280;69797;43.864;21.410;2023-07-09T11:30:51;100402.69;;;28.19;32.81
80482;BME280;69797;43.864;21.410;2023-07-09T11:33:28;100413.56;;;28.29;33.47
80482;BME280;69797;43.864;21.410;2023-07-09T11:36:11;100412.94;;;28.41;33.19
80482;BME280;69797;43.864;21.410;2023-07-09T11:38:46;100378.31;;;28.14;33.67
80482;BME280;69797;43.864;21.410;2023-07-09T11:52:25;100393.19;;;28.32;33.44
80482;BME280;69797;43.864;21.410;2023-07-09T11:54:54;100397.81;;;28.45;35.85
80482;BME280;69797;43.864;21.410;2023-07-09T11:57:24;100405.63;;;28.40;34.60
80482;BME280;69797;43.864;21.410;2023-07-09T11:59:59;100415.56;;;28.37;38.25
80482;BME280;69797;43.864;21.410;2023-07-09T12:02:32;100404.94;;;28.43;37.27
80482;BME280;69797;43.864;21.410;2023-07-09T12:05:00;100388.38;;;28.41;34.79
80482;BME280;69797;43.864;21.410;2023-07-09T12:07:30;100390.06;;;28.34;36.75
80482;BME280;69797;43.864;21.410;2023-07-09T12:10:03;100402.31;;;28.38;34.74
80482;BME280;69797;43.864;21.410;2023-07-09T12:12:30;100382.44;;;28.26;34.19
80482;BME280;69797;43.864;21.410;2023-07-09T12:14:57;100367.22;;;28.27;34.32
80482;BME280;69797;43.864;21.410;2023-07-09T12:17:27;100381.44;;;28.30;35.96
80482;BME280;69797;43.864;21.410;2023-07-09T12:19:57;100378.13;;;28.28;35.27
80482;BME280;69797;43.864;21.410;2023-07-09T12:22:23;100380.13;;;28.28;35.21
80482;BME280;69797;43.864;21.410;2023-07-09T12:24:51;100376.66;;;28.22;35.80
80482;BME280;69797;43.864;21.410;2023-07-09T12:27:24;100378.44;;;28.35;36.32
80482;BME280;69797;43.864;21.410;2023-07-09T12:29:55;100379.91;;;28.33;36.29
80482;BME280;69797;43.864;21.410;2023-07-09T12:32:22;100367.50;;;28.34;36.77
80482;BME280;69797;43.864;21.410;2023-07-09T12:34:55;100378.09;;;28.37;36.43
80482;BME280;69797;43.864;21.410;2023-07-09T12:37:34;100368.19;;;28.31;35.38
80482;BME280;69797;43.864;21.410;2023-07-09T12:40:01;100368.81;;;28.36;36.11
80482;BME280;69797;43.864;21.410;2023-07-09T12:42:34;100364.34;;;28.35;35.21
80482;BME280;69797;43.864;21.410;2023-07-09T12:45:02;100351.91;;;28.36;36.25
80482;BME280;69797;43.864;21.410;2023-07-09T12:47:29;100367.78;;;28.50;36.68
80482;BME280;69797;43.864;21.410;2023-07-09T12:50:33;100373.59;;;28.53;36.79
80482;BME280;69797;43.864;21.410;2023-07-09T12:53:13;100356.69;;;28.53;36.07
80482;BME280;69797;43.864;21.410;2023-07-09T12:55:44;100360.81;;;28.56;36.30
80482;BME280;69797;43.864;21.410;2023-07-09T12:58:22;100324.06;;;28.43;36.59
80482;BME280;69797;43.864;21.410;2023-07-09T13:00:52;100359.16;;;28.55;36.25
80482;BME280;69797;43.864;21.410;2023-07-09T13:03:26;100364.47;;;28.56;34.56
80482;BME280;69797;43.864;21.410;2023-07-09T13:06:29;100346.88;;;28.59;35.74
80482;BME280;69797;43.864;21.410;2023-07-09T13:09:00;100354.97;;;28.61;33.97
80482;BME280;69797;43.864;21.410;2023-07-09T13:11:36;100347.63;;;28.68;34.93
80482;BME280;69797;43.864;21.410;2023-07-09T13:14:11;100340.84;;;28.69;35.74
80482;BME280;69797;43.864;21.410;2023-07-09T13:16:40;100335.06;;;28.66;35.41
80482;BME280;69797;43.864;21.410;2023-07-09T13:19:11;100342.22;;;28.63;34.35
80482;BME280;69797;43.864;21.410;2023-07-09T13:21:39;100341.19;;;28.68;34.18
80482;BME280;69797;43.864;21.410;2023-07-09T13:24:15;100335.66;;;28.80;32.95
80482;BME280;69797;43.864;21.410;2023-07-09T13:26:42;100323.41;;;28.76;33.60
80482;BME280;69797;43.864;21.410;2023-07-09T13:29:16;100318.59;;;28.77;34.39
80482;BME280;69797;43.864;21.410;2023-07-09T13:31:44;100316.25;;;28.79;34.35
80482;BME280;69797;43.864;21.410;2023-07-09T13:34:27;100315.56;;;28.82;34.63